Spicewood's Hourly Summary for Tuesday, May 15, 2018
Hour Temp
(f)
RH
(%)
Solar Rad.
(MJ/m2)
Rainfall
(in)
Wind
(mph)
5/15/2018 12:00 AM 78 79 0 0.01 1.54
5/15/2018 1:00 AM 75 79 0 0 1.66
5/15/2018 2:00 AM 74 79 0 0 2
5/15/2018 3:00 AM 74 81 0 0 5.15
5/15/2018 4:00 AM 74 82 0 0 5.18
5/15/2018 5:00 AM 72 88 0 0 2.97
5/15/2018 6:00 AM 70 93 0 0 0.96
5/15/2018 7:00 AM 69 95 0.01 0 0.66
5/15/2018 8:00 AM 73 95 0.24 0 0.66
5/15/2018 9:00 AM 76 83 0.63 0 3.1
5/15/2018 10:00 AM 79 74 1.6 0 4.66
5/15/2018 11:00 AM 82 64 1.17 0 5.69
5/15/2018 12:00 PM 85 59 2.74 0 3.76
5/15/2018 1:00 PM 87 54 3.18 0 4.24
5/15/2018 2:00 PM 89 50 3.02 0 4.24
5/15/2018 3:00 PM 89 48 2.18 0 5.15
5/15/2018 4:00 PM 89 48 2.52 0 5.84
5/15/2018 5:00 PM 89 48 0.9 0 5.88
5/15/2018 6:00 PM 88 49 1.41 0.01 6.32
5/15/2018 7:00 PM 82 92 0.48 0.09 11.62
5/15/2018 8:00 PM 72 92 0.01 0 5.35
5/15/2018 9:00 PM 73 90 0 0 5.06
5/15/2018 10:00 PM 73 85 0 0.01 3.03
5/15/2018 11:00 PM 72 84 0 0 7.59
Data Summary 78 74 20.09 0.12 4.26